createdAt,value
2022-11-19T00:02:42.424Z,100019.28
2022-11-19T00:07:34.005Z,100047.78
2022-11-19T00:12:44.347Z,99962.97
2022-11-19T00:17:35.942Z,99975.66
2022-11-19T00:22:27.636Z,100039.81
2022-11-19T00:27:19.236Z,99971.34
2022-11-19T00:32:10.851Z,99997.41
2022-11-19T00:37:02.493Z,99951.97
2022-11-19T00:41:54.034Z,100001.94
2022-11-19T00:46:45.741Z,99993.41
2022-11-19T00:51:37.920Z,99925.47
2022-11-19T00:56:29.465Z,99945.31
2022-11-19T01:01:23.591Z,100043.38
2022-11-19T01:06:19.276Z,100046.63
2022-11-19T01:11:17.559Z,99959.94
2022-11-19T01:16:27.524Z,100000.78
2022-11-19T01:21:21.011Z,100057.31
2022-11-19T01:26:13.233Z,100023.69
2022-11-19T01:31:10.868Z,100054.31
2022-11-19T01:36:05.374Z,99892.56
2022-11-19T01:40:58.116Z,100016.03
2022-11-19T01:45:49.904Z,100062.41
2022-11-19T01:51:04.750Z,99987.06
2022-11-19T01:56:03.709Z,99894.31
2022-11-19T02:00:55.324Z,100029.97
2022-11-19T02:05:47.370Z,100033.41
2022-11-19T02:11:04.683Z,99996.50
2022-11-19T02:16:14.265Z,99935.81
2022-11-19T02:21:11.527Z,100069.53
2022-11-19T02:26:21.721Z,100037.31
2022-11-19T02:31:39.661Z,100069.44
2022-11-19T02:36:56.060Z,100073.88
2022-11-19T02:41:47.582Z,100072.44
2022-11-19T02:46:39.702Z,100052.78
2022-11-19T02:51:31.385Z,100048.88
2022-11-19T02:56:50.048Z,100068.94
2022-11-19T03:02:04.292Z,99974.00
2022-11-19T03:07:02.275Z,100016.19
2022-11-19T03:12:07.937Z,100053.94
2022-11-19T03:17:15.913Z,100069.00
2022-11-19T03:22:19.325Z,100008.94
2022-11-19T03:27:26.472Z,100085.06
2022-11-19T03:32:22.277Z,100100.19
2022-11-19T03:37:17.514Z,99982.00
2022-11-19T03:42:12.806Z,99991.47
2022-11-19T03:47:13.522Z,100056.00
2022-11-19T03:52:10.707Z,99939.16
2022-11-19T03:57:05.696Z,100014.34
2022-11-19T04:02:01.783Z,100097.84
2022-11-19T04:06:54.282Z,100132.94
2022-11-19T04:16:39.386Z,100084.13
2022-11-19T04:21:31.074Z,99980.09
2022-11-19T04:26:22.696Z,100096.41
2022-11-19T04:31:17.879Z,100169.19
2022-11-19T04:36:09.968Z,100174.41
2022-11-19T04:41:01.500Z,100167.09
2022-11-19T04:45:53.047Z,100180.00
2022-11-19T04:50:44.692Z,100044.03
2022-11-19T04:55:36.265Z,100114.59
2022-11-19T05:00:27.840Z,100092.69
2022-11-19T05:05:19.485Z,99970.59
2022-11-19T05:10:11.218Z,100044.16
2022-11-19T05:15:03.317Z,100081.06
2022-11-19T05:19:54.857Z,100205.47
2022-11-19T05:24:46.399Z,100161.50
2022-11-19T05:29:37.974Z,100136.81
2022-11-19T05:34:29.532Z,100250.22
2022-11-19T05:39:22.361Z,100185.84
2022-11-19T05:44:14.156Z,100141.47
2022-11-19T05:49:05.921Z,100235.66
2022-11-19T05:53:57.616Z,100144.63
2022-11-19T05:58:49.310Z,99906.66
2022-11-19T06:03:41.524Z,100274.66
2022-11-19T06:08:33.649Z,100280.56
2022-11-19T06:13:25.158Z,100223.13
2022-11-19T06:18:16.813Z,100167.06
2022-11-19T06:23:08.351Z,100273.44
2022-11-19T06:27:59.883Z,100069.16
2022-11-19T06:32:51.439Z,100307.78
2022-11-19T06:37:43.018Z,100232.84
2022-11-19T06:42:37.470Z,100236.31
2022-11-19T06:47:33.583Z,100339.97
2022-11-19T06:52:25.779Z,100065.81
2022-11-19T06:57:17.755Z,100075.13
2022-11-19T07:02:11.301Z,100270.03
2022-11-19T07:07:03.633Z,100215.09
2022-11-19T07:11:55.455Z,100353.47
2022-11-19T07:16:46.993Z,100225.03
2022-11-19T07:21:38.691Z,100225.50
2022-11-19T07:26:32.587Z,100246.09
2022-11-19T07:31:24.945Z,100387.31
2022-11-19T07:36:18.573Z,100393.59
2022-11-19T07:41:29.224Z,100176.84
2022-11-19T07:46:21.035Z,100408.84
2022-11-19T07:51:13.004Z,100327.78
2022-11-19T07:56:04.703Z,100347.97
2022-11-19T08:00:56.311Z,100312.47
2022-11-19T08:05:47.926Z,100388.38
2022-11-19T08:10:39.481Z,100422.34
2022-11-19T08:15:33.228Z,100409.72
2022-11-19T08:20:25.065Z,100249.06
2022-11-19T08:25:16.953Z,100374.75
2022-11-19T08:30:09.542Z,100352.66
2022-11-19T08:35:01.181Z,100443.06
2022-11-19T08:39:52.980Z,100383.00
2022-11-19T08:44:44.525Z,100222.31
2022-11-19T08:49:36.202Z,100465.03
2022-11-19T08:54:27.794Z,100122.91
2022-11-19T08:59:23.907Z,100462.50
2022-11-19T09:04:15.773Z,100334.13
2022-11-19T09:09:07.372Z,100213.09
2022-11-19T09:13:58.998Z,100415.38
2022-11-19T09:18:50.536Z,100482.66
2022-11-19T09:23:42.643Z,100373.50
2022-11-19T09:28:35.490Z,100464.13
2022-11-19T09:33:28.943Z,100353.19
2022-11-19T09:38:20.951Z,100491.84
2022-11-19T09:43:41.154Z,100413.59
2022-11-19T09:48:41.988Z,100406.38
2022-11-19T09:53:40.784Z,100518.78
2022-11-19T09:58:45.189Z,100447.09
2022-11-19T10:03:40.752Z,100357.38
2022-11-19T10:08:44.422Z,100520.50
2022-11-19T10:13:45.761Z,100388.47
2022-11-19T10:19:00.811Z,99940.59
2022-11-19T10:35:07.793Z,100522.34
2022-11-19T10:40:06.399Z,100550.41
2022-11-19T10:45:03.347Z,100544.25
2022-11-19T10:49:55.714Z,100531.44
2022-11-19T10:54:50.866Z,100531.81
2022-11-19T10:59:43.087Z,100160.53
2022-11-19T11:04:34.839Z,100387.34
2022-11-19T11:09:43.440Z,100530.88
2022-11-19T11:14:53.425Z,100465.41
2022-11-19T11:19:45.209Z,100335.47
2022-11-19T11:24:38.824Z,100512.59
2022-11-19T11:29:30.504Z,100261.63
2022-11-19T11:34:32.220Z,100359.13
2022-11-19T11:39:30.121Z,100359.22
2022-11-19T11:44:24.949Z,100063.97
2022-11-19T11:49:30.979Z,100521.47
2022-11-19T11:54:22.555Z,100304.31
2022-11-19T11:59:21.695Z,100300.03
2022-11-19T12:04:13.449Z,100491.59
2022-11-19T12:09:10.916Z,100518.06
2022-11-19T12:14:11.233Z,100267.78
2022-11-19T12:19:33.156Z,100522.78
2022-11-19T12:24:55.523Z,100530.16
2022-11-19T12:29:53.575Z,100525.94
2022-11-19T12:35:12.557Z,100527.53
2022-11-19T12:40:18.822Z,100261.44
2022-11-19T12:45:25.825Z,100385.03
2022-11-19T12:50:33.618Z,100542.66
2022-11-19T12:55:51.902Z,100320.88
2022-11-19T13:00:53.799Z,100470.84
2022-11-19T13:05:58.210Z,100215.44
2022-11-19T13:11:04.767Z,100474.09
2022-11-19T13:16:11.105Z,100444.16
2022-11-19T13:21:41.773Z,100536.63
2022-11-19T13:26:35.577Z,100434.44
2022-11-19T13:31:38.621Z,100336.66
2022-11-19T13:36:37.831Z,100543.16
2022-11-19T13:41:34.311Z,100521.75
2022-11-19T13:46:32.297Z,100517.66
2022-11-19T13:51:32.800Z,100454.63
2022-11-19T13:56:47.417Z,100553.28
2022-11-19T14:01:43.542Z,100534.44
2022-11-19T14:06:38.316Z,100566.38
2022-11-19T14:11:54.361Z,100565.75
2022-11-19T14:17:13.322Z,100286.50
2022-11-19T14:22:49.911Z,100560.72
2022-11-19T14:27:42.018Z,100396.09
2022-11-19T14:32:35.916Z,100562.19
2022-11-19T14:37:36.591Z,100563.88
2022-11-19T14:42:28.162Z,100561.72
2022-11-19T14:47:22.483Z,100571.75
2022-11-19T14:52:26.973Z,100441.38
2022-11-19T14:57:28.724Z,100543.16
2022-11-19T15:02:25.120Z,100530.13
2022-11-19T15:07:37.678Z,100470.81
2022-11-19T15:12:44.931Z,100575.03
2022-11-19T15:17:36.759Z,100416.50
2022-11-19T15:22:37.261Z,100579.44
2022-11-19T15:28:00.461Z,100502.63
2022-11-19T15:32:56.822Z,100405.75
2022-11-19T15:37:50.911Z,100585.22
2022-11-19T15:42:50.209Z,100591.97
2022-11-19T15:48:07.734Z,100373.06
2022-11-19T15:53:14.785Z,100600.31
2022-11-19T15:58:14.605Z,100375.31
2022-11-19T16:03:10.456Z,100606.19
2022-11-19T16:08:08.916Z,100594.47
2022-11-19T16:13:38.840Z,100595.22
2022-11-19T16:18:30.445Z,100535.31
2022-11-19T16:23:24.821Z,100377.56
2022-11-19T16:28:24.797Z,100596.66
2022-11-19T16:33:21.167Z,100599.53
2022-11-19T16:38:43.146Z,100547.56
2022-11-19T16:43:35.727Z,100601.91
2022-11-19T16:48:53.943Z,100456.16
2022-11-19T16:53:46.704Z,100178.16
2022-11-19T16:58:38.517Z,100589.91
2022-11-19T17:03:36.290Z,100593.78
2022-11-19T17:12:56.947Z,100559.56
2022-11-19T17:17:50.796Z,100618.44
2022-11-19T17:22:42.666Z,100611.63
2022-11-19T17:27:37.788Z,100532.06
2022-11-19T17:32:34.904Z,100534.22
2022-11-19T17:37:26.470Z,100625.94
2022-11-19T17:42:36.677Z,100626.59
2022-11-19T17:47:28.386Z,100633.91
2022-11-19T17:52:24.932Z,100637.19
2022-11-19T17:57:16.644Z,100574.75
2022-11-19T18:02:16.796Z,100641.59
2022-11-19T18:07:08.459Z,100643.66
2022-11-19T18:12:00.132Z,100641.72
2022-11-19T18:16:51.783Z,100592.00
2022-11-19T18:21:45.523Z,100548.16
2022-11-19T18:26:37.054Z,100639.47
2022-11-19T18:31:28.925Z,100640.91
2022-11-19T18:36:21.996Z,100587.44
2022-11-19T18:41:15.756Z,100634.75
2022-11-19T18:46:07.471Z,100639.34
2022-11-19T18:50:59.029Z,100636.66
2022-11-19T18:55:50.886Z,100631.56
2022-11-19T19:00:43.011Z,100641.63
2022-11-19T19:05:34.565Z,100410.91
2022-11-19T19:10:27.483Z,100643.53
2022-11-19T19:15:19.067Z,100576.63
2022-11-19T19:20:11.226Z,100648.31
2022-11-19T19:25:05.027Z,100651.38
2022-11-19T19:29:56.896Z,100649.16
2022-11-19T19:34:48.537Z,100618.50
2022-11-19T19:39:40.164Z,100642.75
2022-11-19T19:44:31.923Z,100629.78
2022-11-19T19:49:23.995Z,100644.28
2022-11-19T19:54:16.049Z,100644.44
2022-11-19T19:59:07.644Z,100590.66
2022-11-19T20:04:01.581Z,100623.22
2022-11-19T20:08:53.143Z,100640.03
2022-11-19T20:13:45.229Z,100645.09
2022-11-19T20:18:38.297Z,100577.69
2022-11-19T20:23:31.039Z,100654.47
2022-11-19T20:28:22.717Z,100652.97
2022-11-19T20:33:14.301Z,100594.53
2022-11-19T20:38:05.946Z,100663.69
2022-11-19T20:43:16.224Z,100670.97
2022-11-19T20:48:07.788Z,100664.66
2022-11-19T20:52:59.373Z,100639.25
2022-11-19T20:57:50.962Z,100602.84
2022-11-19T21:02:43.248Z,100664.22
2022-11-19T21:07:35.144Z,100640.06
2022-11-19T21:12:26.810Z,100652.19
2022-11-19T21:17:20.086Z,100656.91
2022-11-19T21:22:11.814Z,100649.63
2022-11-19T21:27:03.430Z,100658.66
2022-11-19T21:31:55.559Z,100627.78
2022-11-19T21:36:48.321Z,100658.09
2022-11-19T21:41:40.929Z,100502.81
2022-11-19T21:46:33.346Z,100618.91
2022-11-19T21:51:25.593Z,100623.44
2022-11-19T21:56:17.240Z,100639.63
2022-11-19T22:01:12.035Z,100584.56
2022-11-19T22:06:06.443Z,100650.66
2022-11-19T22:10:58.540Z,100604.34
2022-11-19T22:15:50.712Z,100588.63
2022-11-19T22:20:43.301Z,100528.56
2022-11-19T22:25:35.222Z,100598.97
2022-11-19T22:30:27.721Z,100641.13
2022-11-19T22:35:19.312Z,100648.41
2022-11-19T22:40:12.585Z,100653.28
2022-11-19T22:45:04.738Z,100475.13
2022-11-19T22:49:56.412Z,100652.28
2022-11-19T22:54:48.012Z,100644.50
2022-11-19T22:59:40.236Z,100636.38
2022-11-19T23:04:31.817Z,100639.78
2022-11-19T23:09:23.619Z,100647.56
2022-11-19T23:14:17.034Z,100649.34
2022-11-19T23:19:11.073Z,100661.38
2022-11-19T23:24:03.473Z,100593.97
2022-11-19T23:28:55.817Z,100581.81
2022-11-19T23:33:48.519Z,100655.19
2022-11-19T23:38:41.295Z,100647.06
2022-11-19T23:43:33.753Z,100635.50
2022-11-19T23:48:25.293Z,100628.69
2022-11-19T23:53:17.137Z,100582.72
2022-11-19T23:58:08.722Z,100630.06
